createdAt,value
2023-01-25T00:01:53.064Z,70.34
2023-01-25T00:04:21.856Z,70.03
2023-01-25T00:06:50.390Z,70.11
2023-01-25T00:09:19.466Z,70.69
2023-01-25T00:11:48.999Z,70.22
2023-01-25T00:14:18.078Z,70.59
2023-01-25T00:16:46.313Z,71.39
2023-01-25T00:19:14.445Z,71.99
2023-01-25T00:21:42.611Z,71.77
2023-01-25T00:24:11.697Z,70.74
2023-01-25T00:26:39.968Z,71.23
2023-01-25T00:29:13.991Z,71.86
2023-01-25T00:31:52.139Z,72.39
2023-01-25T00:34:49.017Z,70.90
2023-01-25T00:37:26.402Z,71.94
2023-01-25T00:39:54.391Z,71.08
2023-01-25T00:42:22.687Z,72.31
2023-01-25T00:44:52.238Z,71.69
2023-01-25T00:47:21.604Z,72.17
2023-01-25T00:49:50.251Z,71.85
2023-01-25T00:52:18.491Z,72.05
2023-01-25T00:54:46.520Z,71.87
2023-01-25T00:57:14.966Z,72.36
2023-01-25T00:59:44.652Z,72.85
2023-01-25T01:02:15.216Z,72.05
2023-01-25T01:04:43.372Z,71.65
2023-01-25T01:07:16.201Z,72.52
2023-01-25T01:09:45.568Z,72.85
2023-01-25T01:12:14.732Z,72.63
2023-01-25T01:14:43.595Z,71.96
2023-01-25T01:17:11.921Z,72.73
2023-01-25T01:19:42.393Z,72.84
2023-01-25T01:22:10.381Z,72.90
2023-01-25T01:24:38.690Z,72.28
2023-01-25T01:27:06.792Z,71.86
2023-01-25T01:29:34.775Z,72.47
2023-01-25T01:32:03.221Z,71.01
2023-01-25T01:34:31.340Z,71.16
2023-01-25T01:37:00.868Z,71.48
2023-01-25T01:39:28.914Z,72.08
2023-01-25T01:41:56.912Z,70.97
2023-01-25T01:44:48.986Z,71.03
2023-01-25T01:47:23.494Z,71.95
2023-01-25T01:49:59.925Z,71.81
2023-01-25T01:52:35.283Z,71.25
2023-01-25T01:55:08.360Z,72.02
2023-01-25T01:57:42.557Z,71.83
2023-01-25T02:00:15.759Z,71.80
2023-01-25T02:02:46.694Z,71.19
2023-01-25T02:05:21.518Z,70.90
2023-01-25T02:07:54.596Z,71.38
2023-01-25T02:10:25.086Z,71.40
2023-01-25T02:12:56.739Z,71.21
2023-01-25T02:15:29.781Z,71.16
2023-01-25T02:17:58.023Z,71.74
2023-01-25T02:20:37.398Z,72.96
2023-01-25T02:23:15.548Z,73.12
2023-01-25T02:25:45.468Z,73.34
2023-01-25T02:28:21.538Z,73.22
2023-01-25T02:30:52.380Z,72.82
2023-01-25T02:33:23.477Z,73.11
2023-01-25T02:35:57.593Z,73.11
2023-01-25T02:38:26.093Z,73.73
2023-01-25T02:41:03.301Z,73.64
2023-01-25T02:43:36.830Z,73.47
2023-01-25T02:46:15.348Z,74.25
2023-01-25T02:48:46.148Z,73.88
2023-01-25T02:51:14.259Z,73.91
2023-01-25T02:53:42.650Z,73.42
2023-01-25T02:56:12.037Z,72.82
2023-01-25T02:58:40.073Z,74.00
2023-01-25T03:01:08.186Z,73.54
2023-01-25T03:03:36.253Z,73.62
2023-01-25T03:06:05.987Z,73.32
2023-01-25T03:08:34.773Z,73.17
2023-01-25T03:11:06.410Z,73.37
2023-01-25T03:13:38.673Z,74.00
2023-01-25T03:16:10.903Z,74.09
2023-01-25T03:18:41.917Z,74.24
2023-01-25T03:21:13.529Z,74.30
2023-01-25T03:23:42.841Z,73.74
2023-01-25T03:26:15.013Z,73.79
2023-01-25T03:28:59.738Z,73.66
2023-01-25T03:31:28.046Z,74.02
2023-01-25T03:33:57.712Z,73.13
2023-01-25T03:36:31.116Z,73.28
2023-01-25T03:38:59.351Z,73.78
2023-01-25T03:41:27.428Z,73.68
2023-01-25T03:44:00.405Z,73.96
2023-01-25T03:46:29.261Z,73.33
2023-01-25T03:48:57.370Z,73.18
2023-01-25T03:51:25.467Z,73.04
2023-01-25T03:53:54.651Z,72.77
2023-01-25T03:56:22.688Z,74.00
2023-01-25T03:59:03.303Z,74.06
2023-01-25T04:01:31.965Z,74.44
2023-01-25T04:04:00.815Z,74.01
2023-01-25T04:06:29.051Z,73.19
2023-01-25T04:08:57.352Z,73.51
2023-01-25T04:11:27.793Z,73.63
2023-01-25T04:13:55.878Z,73.63
2023-01-25T04:16:30.433Z,72.92
2023-01-25T04:19:14.943Z,73.80
2023-01-25T04:21:43.258Z,72.56
2023-01-25T04:24:11.817Z,73.50
2023-01-25T04:26:41.821Z,72.54
2023-01-25T04:29:11.081Z,72.54
2023-01-25T04:31:40.819Z,72.89
2023-01-25T04:34:08.931Z,73.49
2023-01-25T04:36:37.114Z,72.43
2023-01-25T04:39:05.411Z,71.87
2023-01-25T04:41:33.648Z,73.00
2023-01-25T04:44:01.752Z,72.19
2023-01-25T04:46:30.073Z,72.66
2023-01-25T04:48:59.892Z,72.25
2023-01-25T04:51:27.925Z,72.91
2023-01-25T04:53:56.066Z,72.85
2023-01-25T04:56:24.452Z,73.06
2023-01-25T04:58:55.445Z,72.07
2023-01-25T05:01:23.627Z,73.11
2023-01-25T05:03:53.060Z,72.67
2023-01-25T05:06:33.426Z,72.55
2023-01-25T05:09:01.853Z,73.35
2023-01-25T05:11:30.268Z,72.16
2023-01-25T05:14:11.041Z,73.12
2023-01-25T05:16:39.127Z,72.83
2023-01-25T05:19:10.271Z,72.84
2023-01-25T05:22:00.498Z,72.69
2023-01-25T05:24:36.993Z,73.76
2023-01-25T05:27:08.884Z,73.08
2023-01-25T05:30:07.934Z,72.42
2023-01-25T05:32:45.158Z,72.64
2023-01-25T05:35:14.684Z,72.99
2023-01-25T05:37:44.148Z,72.66
2023-01-25T05:40:18.911Z,72.76
2023-01-25T05:42:53.823Z,73.67
2023-01-25T05:45:22.264Z,72.06
2023-01-25T05:47:54.880Z,72.47
2023-01-25T05:50:23.251Z,72.03
2023-01-25T05:53:00.154Z,72.29
2023-01-25T05:55:29.724Z,72.19
2023-01-25T05:58:02.129Z,72.29
2023-01-25T06:00:30.307Z,71.31
2023-01-25T06:03:02.542Z,71.29
2023-01-25T06:05:32.884Z,71.82
2023-01-25T06:08:02.716Z,71.11
2023-01-25T06:10:39.198Z,71.51
2023-01-25T06:13:07.210Z,71.48
2023-01-25T06:15:35.314Z,71.89
2023-01-25T06:18:24.431Z,72.11
2023-01-25T06:21:12.181Z,72.30
2023-01-25T06:23:43.036Z,71.56
2023-01-25T06:26:15.839Z,72.39
2023-01-25T06:28:44.061Z,71.99
2023-01-25T06:31:15.624Z,72.15
2023-01-25T06:33:48.456Z,71.63
2023-01-25T06:36:19.348Z,72.88
2023-01-25T06:38:51.704Z,72.84
2023-01-25T06:41:20.939Z,72.54
2023-01-25T06:43:52.056Z,71.51
2023-01-25T06:46:21.279Z,72.07
2023-01-25T06:48:49.491Z,71.23
2023-01-25T06:51:17.985Z,71.62
2023-01-25T06:53:47.468Z,71.85
2023-01-25T06:56:19.604Z,71.64
2023-01-25T06:58:48.678Z,71.31
2023-01-25T07:01:20.040Z,72.34
2023-01-25T07:03:49.779Z,72.15
2023-01-25T07:06:18.286Z,72.11
2023-01-25T07:08:47.062Z,71.82
2023-01-25T07:11:18.921Z,71.88
2023-01-25T07:13:48.694Z,71.33
2023-01-25T07:16:21.704Z,71.14
2023-01-25T07:18:49.877Z,71.52
2023-01-25T07:21:21.281Z,71.16
2023-01-25T07:23:49.614Z,70.73
2023-01-25T07:26:21.629Z,71.34
2023-01-25T07:28:50.646Z,70.73
2023-01-25T07:31:20.456Z,71.03
2023-01-25T07:33:50.271Z,71.34
2023-01-25T07:36:19.392Z,71.08
2023-01-25T07:38:47.951Z,70.79
2023-01-25T07:41:16.853Z,70.29
2023-01-25T07:43:46.384Z,70.68
2023-01-25T07:46:20.788Z,70.76
2023-01-25T07:48:50.808Z,71.10
2023-01-25T07:51:23.604Z,70.65
2023-01-25T07:53:54.092Z,71.02
2023-01-25T07:56:24.497Z,71.12
2023-01-25T07:58:55.504Z,70.13
2023-01-25T08:01:26.449Z,70.02
2023-01-25T08:03:57.286Z,69.76
2023-01-25T08:06:27.411Z,69.83
2023-01-25T08:08:56.225Z,70.14
2023-01-25T08:11:27.282Z,70.54
2023-01-25T08:13:56.980Z,70.73
2023-01-25T08:16:27.669Z,69.61
2023-01-25T08:18:58.141Z,70.20
2023-01-25T08:21:29.959Z,70.46
2023-01-25T08:24:00.667Z,69.86
2023-01-25T08:26:29.334Z,69.64
2023-01-25T08:28:59.441Z,70.45
2023-01-25T08:31:30.623Z,70.33
2023-01-25T08:34:02.351Z,69.73
2023-01-25T08:36:30.813Z,70.69
2023-01-25T08:39:02.061Z,69.64
2023-01-25T08:41:32.387Z,70.05
2023-01-25T08:44:02.061Z,69.33
2023-01-25T08:46:33.125Z,70.34
2023-01-25T08:49:03.718Z,70.20
2023-01-25T08:51:33.571Z,70.48
2023-01-25T08:54:06.466Z,70.27
2023-01-25T08:56:37.388Z,69.48
2023-01-25T08:59:07.216Z,69.98
2023-01-25T09:01:35.516Z,69.66
2023-01-25T09:04:03.786Z,70.14
2023-01-25T09:06:31.983Z,69.24
2023-01-25T09:09:00.368Z,69.48
2023-01-25T09:11:28.394Z,70.49
2023-01-25T09:13:56.663Z,69.68
2023-01-25T09:16:30.632Z,69.28
2023-01-25T09:19:00.444Z,70.39
2023-01-25T09:21:29.527Z,69.29
2023-01-25T09:24:07.197Z,68.92
2023-01-25T09:26:38.874Z,69.64
2023-01-25T09:29:08.677Z,70.04
2023-01-25T09:31:43.522Z,69.40
2023-01-25T09:34:30.384Z,69.02
2023-01-25T09:36:58.444Z,69.22
2023-01-25T09:39:26.583Z,68.84
2023-01-25T09:42:45.488Z,68.59
2023-01-25T09:45:23.339Z,69.38
2023-01-25T09:48:00.564Z,68.95
2023-01-25T09:50:37.229Z,68.76
2023-01-25T09:53:26.650Z,69.33
2023-01-25T09:55:59.111Z,69.40
2023-01-25T09:58:34.959Z,70.00
2023-01-25T10:01:38.928Z,69.72
2023-01-25T10:04:17.704Z,69.09
2023-01-25T10:07:00.108Z,69.51
2023-01-25T10:09:40.547Z,69.40
2023-01-25T10:12:17.383Z,69.47
2023-01-25T10:14:45.562Z,69.98
2023-01-25T10:17:24.541Z,69.40
2023-01-25T10:20:10.959Z,69.11
2023-01-25T10:22:48.210Z,69.58
2023-01-25T10:25:39.933Z,69.82
2023-01-25T10:28:29.954Z,69.24
2023-01-25T10:31:03.653Z,69.07
2023-01-25T10:33:39.345Z,69.24
2023-01-25T10:36:15.518Z,68.37
2023-01-25T10:38:46.631Z,68.53
2023-01-25T10:41:22.553Z,67.82
2023-01-25T10:44:10.989Z,68.03
2023-01-25T10:46:41.778Z,68.09
2023-01-25T10:49:24.880Z,68.85
2023-01-25T10:51:54.415Z,68.03
2023-01-25T10:54:24.194Z,69.63
2023-01-25T10:56:53.422Z,68.08
2023-01-25T10:59:26.191Z,68.24
2023-01-25T11:01:54.563Z,68.82
2023-01-25T11:04:33.194Z,68.59
2023-01-25T11:07:05.792Z,68.43
2023-01-25T11:09:40.245Z,68.09
2023-01-25T11:12:20.284Z,68.08
2023-01-25T11:14:50.806Z,68.59
2023-01-25T11:17:26.927Z,68.17
2023-01-25T11:20:18.806Z,68.17
2023-01-25T11:22:57.359Z,68.89
2023-01-25T11:25:32.187Z,68.27
2023-01-25T11:28:21.763Z,68.69
2023-01-25T11:30:52.030Z,68.48
2023-01-25T11:33:22.003Z,68.32
2023-01-25T11:36:20.937Z,68.61
2023-01-25T11:39:13.478Z,68.44
2023-01-25T11:42:07.734Z,69.93
2023-01-25T11:45:07.277Z,69.71
2023-01-25T11:47:56.464Z,68.61
2023-01-25T11:50:32.825Z,69.31
2023-01-25T11:53:28.599Z,69.32
2023-01-25T11:56:12.095Z,68.58
2023-01-25T11:59:00.356Z,69.25
2023-01-25T12:01:39.140Z,68.59
2023-01-25T12:04:48.041Z,67.82
2023-01-25T12:07:23.373Z,69.76
2023-01-25T12:10:05.210Z,69.16
2023-01-25T12:12:50.441Z,68.61
2023-01-25T12:15:38.212Z,68.87
2023-01-25T12:18:48.146Z,68.48
2023-01-25T12:21:32.337Z,68.39
2023-01-25T12:24:22.902Z,69.06
2023-01-25T12:27:00.193Z,69.01
2023-01-25T12:29:37.404Z,69.18
2023-01-25T12:32:12.630Z,68.43
2023-01-25T12:34:49.071Z,67.98
2023-01-25T12:37:23.404Z,68.28
2023-01-25T12:39:59.388Z,69.20
2023-01-25T12:42:36.695Z,69.30
2023-01-25T12:45:16.512Z,68.68
2023-01-25T12:47:50.221Z,68.86
2023-01-25T12:50:24.410Z,68.22
2023-01-25T12:52:57.017Z,69.19
2023-01-25T12:55:25.583Z,69.27
2023-01-25T12:58:06.291Z,69.59
2023-01-25T13:00:45.762Z,68.62
2023-01-25T13:03:28.063Z,69.42
2023-01-25T13:06:06.563Z,68.63
2023-01-25T13:08:45.165Z,69.09
2023-01-25T13:11:19.427Z,69.01
2023-01-25T13:13:48.120Z,69.16
2023-01-25T13:16:41.082Z,68.19
2023-01-25T13:19:22.124Z,68.02
2023-01-25T13:21:56.584Z,67.93
2023-01-25T13:24:26.968Z,68.12
2023-01-25T13:27:26.664Z,68.72
2023-01-25T13:30:04.303Z,67.91
2023-01-25T13:32:58.575Z,67.26
2023-01-25T13:35:39.931Z,67.66
2023-01-25T13:38:31.371Z,68.11
2023-01-25T13:41:18.489Z,68.23
2023-01-25T13:43:56.475Z,67.54
2023-01-25T13:46:25.995Z,69.15
2023-01-25T13:49:04.497Z,67.86
2023-01-25T13:51:39.144Z,68.95
2023-01-25T13:54:07.230Z,68.64
2023-01-25T13:56:37.408Z,67.63
2023-01-25T13:59:05.711Z,67.69
2023-01-25T14:01:36.932Z,68.10
2023-01-25T14:04:06.859Z,68.63
2023-01-25T14:06:38.895Z,68.35
2023-01-25T14:09:16.896Z,67.88
2023-01-25T14:11:50.736Z,67.59
2023-01-25T14:14:25.219Z,67.16
2023-01-25T14:17:20.814Z,68.11
2023-01-25T14:19:54.064Z,67.74
2023-01-25T14:22:26.977Z,68.31
2023-01-25T14:25:11.789Z,68.19
2023-01-25T14:27:45.440Z,67.96
2023-01-25T14:30:24.029Z,67.39
2023-01-25T14:32:55.051Z,67.75
2023-01-25T14:35:54.805Z,67.96
2023-01-25T14:38:35.193Z,68.33
2023-01-25T14:41:13.833Z,67.68
2023-01-25T14:43:45.272Z,68.30
2023-01-25T14:46:28.657Z,68.03
2023-01-25T14:49:17.861Z,67.81
2023-01-25T14:51:51.510Z,68.29
2023-01-25T14:54:22.256Z,67.38
2023-01-25T14:56:53.467Z,67.80
2023-01-25T14:59:34.588Z,67.32
2023-01-25T15:02:12.619Z,67.19
2023-01-25T15:04:40.728Z,67.15
2023-01-25T15:07:41.459Z,67.90
2023-01-25T15:10:20.195Z,68.14
2023-01-25T15:13:13.740Z,68.28
2023-01-25T15:15:57.680Z,67.83
2023-01-25T15:18:46.609Z,68.69
2023-01-25T15:21:16.667Z,68.75
2023-01-25T15:23:48.422Z,68.47
2023-01-25T15:26:21.276Z,67.78
2023-01-25T15:28:50.282Z,66.53
2023-01-25T15:31:27.909Z,66.98
2023-01-25T15:33:56.422Z,66.28
2023-01-25T15:36:24.605Z,67.06
2023-01-25T15:38:54.020Z,66.79
2023-01-25T15:41:22.360Z,66.69
2023-01-25T15:43:51.104Z,67.24
2023-01-25T15:46:23.527Z,67.23
2023-01-25T15:48:52.505Z,66.37
2023-01-25T15:51:21.273Z,66.92
2023-01-25T15:53:50.008Z,67.26
2023-01-25T15:56:21.526Z,66.76
2023-01-25T15:58:53.113Z,66.80
2023-01-25T16:01:22.852Z,66.74
2023-01-25T16:03:51.033Z,67.83
2023-01-25T16:06:41.882Z,66.80
2023-01-25T16:09:19.064Z,67.04
2023-01-25T16:11:51.718Z,66.67
2023-01-25T16:14:20.810Z,67.04
2023-01-25T16:16:51.754Z,66.41
2023-01-25T16:19:22.384Z,67.70
2023-01-25T16:21:51.551Z,66.88
2023-01-25T16:24:20.222Z,67.25
2023-01-25T16:26:54.917Z,67.94
2023-01-25T16:29:23.883Z,67.37
2023-01-25T16:31:52.737Z,67.37
2023-01-25T16:34:21.927Z,67.85
2023-01-25T16:36:51.083Z,66.72
2023-01-25T16:39:21.882Z,67.45
2023-01-25T16:41:51.864Z,68.19
2023-01-25T16:44:20.248Z,68.14
2023-01-25T16:46:50.130Z,67.89
2023-01-25T16:49:20.690Z,67.58
2023-01-25T16:51:50.513Z,67.40
2023-01-25T16:54:19.799Z,67.51
2023-01-25T16:56:48.711Z,68.89
2023-01-25T16:59:19.199Z,68.72
2023-01-25T17:01:47.576Z,68.68
2023-01-25T17:04:16.121Z,67.74
2023-01-25T17:06:47.298Z,68.34
2023-01-25T17:09:24.773Z,68.54
2023-01-25T17:11:59.738Z,67.89
2023-01-25T17:14:33.033Z,68.43
2023-01-25T17:17:01.564Z,68.06
2023-01-25T17:19:33.038Z,67.27
2023-01-25T17:22:01.072Z,67.07
2023-01-25T17:24:29.364Z,66.79
2023-01-25T17:26:59.333Z,67.67
2023-01-25T17:29:27.486Z,67.17
2023-01-25T17:31:57.291Z,67.83
2023-01-25T17:34:26.349Z,67.23
2023-01-25T17:36:54.453Z,68.25
2023-01-25T17:39:23.113Z,67.23
2023-01-25T17:41:52.157Z,67.75
2023-01-25T17:44:22.692Z,66.73
2023-01-25T17:46:51.617Z,67.12
2023-01-25T17:49:22.449Z,67.38
2023-01-25T17:51:50.569Z,67.67
2023-01-25T17:54:18.848Z,66.69
2023-01-25T17:56:46.977Z,66.90
2023-01-25T17:59:15.020Z,67.64
2023-01-25T18:01:43.650Z,67.16
2023-01-25T18:04:13.167Z,67.02
2023-01-25T18:06:43.117Z,66.73
2023-01-25T18:09:12.700Z,67.49
2023-01-25T18:11:41.346Z,67.46
2023-01-25T18:14:15.227Z,66.37
2023-01-25T18:16:45.097Z,67.14
2023-01-25T18:19:13.886Z,67.49
2023-01-25T18:21:43.686Z,66.68
2023-01-25T18:24:28.260Z,67.46
2023-01-25T18:27:02.615Z,67.38
2023-01-25T18:29:47.097Z,67.18
2023-01-25T18:32:16.566Z,68.14
2023-01-25T18:34:44.835Z,68.11
2023-01-25T18:37:20.823Z,67.30
2023-01-25T18:39:51.492Z,67.84
2023-01-25T18:42:20.819Z,67.29
2023-01-25T18:44:49.148Z,67.25
2023-01-25T18:47:19.526Z,67.29
2023-01-25T18:49:49.158Z,67.55
2023-01-25T18:52:19.623Z,67.74
2023-01-25T18:54:49.128Z,67.53
2023-01-25T18:57:17.626Z,67.33
2023-01-25T18:59:47.145Z,66.35
2023-01-25T19:02:17.450Z,66.58
2023-01-25T19:04:46.193Z,66.78
2023-01-25T19:07:14.643Z,67.24
2023-01-25T19:09:44.520Z,66.85
2023-01-25T19:12:13.010Z,67.31
2023-01-25T19:14:40.987Z,67.32
2023-01-25T19:17:09.154Z,67.63
2023-01-25T19:19:37.308Z,66.90
2023-01-25T19:22:05.321Z,67.39
2023-01-25T19:24:33.345Z,67.15
2023-01-25T19:27:02.767Z,67.31
2023-01-25T19:29:30.825Z,67.14
2023-01-25T19:31:59.538Z,67.05
2023-01-25T19:34:27.849Z,67.70
2023-01-25T19:36:58.159Z,67.41
2023-01-25T19:39:26.773Z,66.52
2023-01-25T19:41:55.147Z,66.67
2023-01-25T19:44:25.177Z,67.04
2023-01-25T19:46:53.336Z,67.61
2023-01-25T19:49:22.263Z,67.70
2023-01-25T19:51:52.949Z,67.18
2023-01-25T19:54:21.810Z,67.83
2023-01-25T19:56:51.245Z,67.64
2023-01-25T19:59:21.740Z,66.68
2023-01-25T20:01:51.657Z,67.46
2023-01-25T20:04:21.745Z,66.53
2023-01-25T20:06:51.244Z,67.25
2023-01-25T20:09:24.732Z,66.90
2023-01-25T20:11:55.169Z,66.47
2023-01-25T20:14:23.183Z,66.96
2023-01-25T20:16:52.779Z,67.31
2023-01-25T20:19:20.925Z,67.26
2023-01-25T20:21:48.986Z,66.77
2023-01-25T20:24:17.280Z,67.22
2023-01-25T20:26:45.785Z,68.01
2023-01-25T20:29:14.182Z,67.85
2023-01-25T20:31:44.517Z,68.17
2023-01-25T20:34:16.505Z,67.47
2023-01-25T20:36:45.342Z,67.31
2023-01-25T20:39:16.596Z,67.08
2023-01-25T20:41:44.714Z,68.01
2023-01-25T20:44:16.210Z,68.46
2023-01-25T20:46:45.048Z,68.95
2023-01-25T20:49:17.561Z,68.04
2023-01-25T20:51:46.953Z,67.56
2023-01-25T20:54:15.152Z,68.60
2023-01-25T20:56:47.654Z,68.36
2023-01-25T20:59:17.652Z,68.73
2023-01-25T21:01:46.715Z,67.23
2023-01-25T21:04:16.235Z,67.11
2023-01-25T21:06:44.272Z,67.64
2023-01-25T21:09:12.870Z,67.62
2023-01-25T21:11:40.982Z,67.95
2023-01-25T21:14:08.970Z,67.81
2023-01-25T21:16:37.252Z,69.58
2023-01-25T21:19:07.584Z,68.95
2023-01-25T21:21:38.434Z,68.49
2023-01-25T21:24:07.658Z,69.39
2023-01-25T21:26:38.261Z,68.40
2023-01-25T21:29:07.350Z,69.16
2023-01-25T21:31:38.404Z,68.40
2023-01-25T21:34:09.044Z,67.62
2023-01-25T21:36:38.517Z,67.38
2023-01-25T21:39:06.607Z,68.51
2023-01-25T21:41:35.397Z,69.03
2023-01-25T21:44:28.013Z,67.46
2023-01-25T21:47:23.566Z,68.39
2023-01-25T21:50:13.936Z,66.86
2023-01-25T21:52:43.531Z,66.27
2023-01-25T21:55:11.630Z,65.79
2023-01-25T21:57:46.226Z,65.48
2023-01-25T22:00:16.935Z,66.55
2023-01-25T22:02:45.221Z,65.47
2023-01-25T22:05:13.246Z,65.50
2023-01-25T22:07:41.285Z,66.95
2023-01-25T22:10:12.612Z,66.98
2023-01-25T22:12:40.786Z,65.77
2023-01-25T22:15:11.278Z,64.73
2023-01-25T22:17:39.378Z,65.24
2023-01-25T22:20:13.633Z,65.08
2023-01-25T22:22:42.371Z,65.27
2023-01-25T22:25:11.926Z,65.37
2023-01-25T22:27:51.553Z,65.19
2023-01-25T22:30:19.655Z,64.15
2023-01-25T22:32:47.691Z,64.50
2023-01-25T22:35:15.920Z,65.35
2023-01-25T22:37:43.966Z,64.37
2023-01-25T22:40:14.294Z,65.50
2023-01-25T22:42:42.414Z,66.82
2023-01-25T22:45:11.201Z,66.19
2023-01-25T22:47:41.383Z,66.80
2023-01-25T22:50:11.952Z,67.09
2023-01-25T22:52:40.175Z,67.14
2023-01-25T22:55:09.498Z,68.26
2023-01-25T22:57:38.836Z,68.04
2023-01-25T23:00:11.485Z,67.70
2023-01-25T23:02:39.683Z,67.87
2023-01-25T23:05:09.200Z,68.17
2023-01-25T23:07:37.232Z,67.87
2023-01-25T23:10:06.492Z,68.13
2023-01-25T23:12:34.671Z,67.34
2023-01-25T23:15:07.091Z,67.88
2023-01-25T23:17:52.892Z,68.31
2023-01-25T23:20:21.150Z,67.24
2023-01-25T23:22:51.487Z,67.43
2023-01-25T23:25:19.602Z,67.44
2023-01-25T23:27:48.204Z,67.43
2023-01-25T23:30:18.359Z,67.57
2023-01-25T23:32:49.400Z,66.74
2023-01-25T23:35:21.122Z,67.69
2023-01-25T23:37:49.691Z,66.74
2023-01-25T23:40:18.107Z,67.00
2023-01-25T23:42:46.126Z,67.27
2023-01-25T23:45:14.133Z,66.34
2023-01-25T23:47:43.548Z,66.00
2023-01-25T23:50:13.213Z,67.20
2023-01-25T23:52:41.339Z,67.07
2023-01-25T23:55:11.012Z,67.70
2023-01-25T23:57:39.030Z,66.70
